Time;durP1;ratioP1;P1;durP2;ratioP2;P2;SDS_P1;SDS_P2;PMS_P1;PMS_P2;Temp;Humidity;BMP_temperature;BMP_pressure;BME280_temperature;BME280_humidity;BME280_pressure;Samples;Min_cycle;Max_cycle;Signal;HPM_P1;HPM_P2
2022/06/28 00:01:16;;;;;;;0.00;0.00;;;13.90;99.90;;;;;;4980956;28;20042;-56
2022/06/28 00:03:42;;;;;;;0.00;0.00;;;13.90;99.90;;;;;;4981405;28;20045;-56
2022/06/28 00:06:09;;;;;;;0.00;0.00;;;13.90;99.90;;;;;;4978836;28;20066;-58
2022/06/28 00:08:34;;;;;;;0.00;0.00;;;13.90;99.90;;;;;;4980776;28;20082;-57
2022/06/28 00:11:00;;;;;;;0.00;0.00;;;13.80;99.90;;;;;;4980896;28;20092;-57
2022/06/28 00:13:27;;;;;;;0.00;0.00;;;13.80;99.90;;;;;;4980843;28;20034;-57
2022/06/28 00:16:05;;;;;;;0.00;0.00;;;13.80;99.90;;;;;;4980075;28;20505;-57
2022/06/28 00:18:38;;;;;;;0.00;0.00;;;14.00;99.90;;;;;;4980668;28;20107;-57
2022/06/28 00:21:06;;;;;;;0.00;0.00;;;13.80;99.90;;;;;;4979751;28;20636;-57
2022/06/28 00:23:32;;;;;;;0.00;0.00;;;13.70;99.90;;;;;;4979893;28;20046;-57
2022/06/28 00:25:58;;;;;;;0.00;0.00;;;13.80;99.90;;;;;;4979316;28;20049;-57
2022/06/28 00:28:24;;;;;;;0.00;0.00;;;13.80;99.90;;;;;;4980037;28;20088;-57
2022/06/28 00:30:50;;;;;;;0.00;0.00;;;13.80;99.90;;;;;;4980239;28;20038;-57
2022/06/28 00:33:15;;;;;;;0.00;0.00;;;13.70;99.90;;;;;;4980109;28;20042;-53
2022/06/28 00:35:41;;;;;;;0.00;0.00;;;13.70;99.90;;;;;;4980269;28;20505;-54
2022/06/28 00:38:07;;;;;;;0.00;0.00;;;13.80;99.90;;;;;;4979874;28;20046;-57
2022/06/28 00:40:44;;;;;;;0.00;0.00;;;13.70;99.90;;;;;;4979199;28;20055;-57
2022/06/28 00:43:10;;;;;;;0.00;0.00;;;13.70;99.90;;;;;;4980334;28;21141;-57
2022/06/28 00:45:36;;;;;;;0.00;0.00;;;13.70;99.90;;;;;;4989874;28;20042;-58
2022/06/28 00:48:04;;;;;;;0.10;0.10;;;13.60;99.90;;;;;;4980839;28;20117;-58
2022/06/28 00:50:33;;;;;;;0.00;0.00;;;13.60;99.90;;;;;;4980166;28;20053;-56
2022/06/28 00:53:14;;;;;;;0.00;0.00;;;13.60;99.90;;;;;;4979507;28;20046;-57
2022/06/28 00:55:40;;;;;;;0.00;0.00;;;13.50;99.90;;;;;;4979231;28;20108;-57
2022/06/28 00:58:07;;;;;;;0.00;0.00;;;13.50;99.90;;;;;;4978338;28;20137;-57
2022/06/28 01:00:37;;;;;;;0.00;0.00;;;13.50;99.90;;;;;;4979509;28;20508;-57
2022/06/28 01:03:03;;;;;;;0.00;0.00;;;13.40;99.90;;;;;;5004554;23;20082;-59
2022/06/28 01:05:29;;;;;;;0.10;0.10;;;13.60;99.90;;;;;;5002079;28;20132;-57
2022/06/28 01:07:55;;;;;;;0.00;0.00;;;13.40;99.90;;;;;;4993529;28;20149;-56
2022/06/28 01:10:23;;;;;;;0.00;0.00;;;13.40;99.90;;;;;;4979751;28;20044;-57
2022/06/28 01:12:48;;;;;;;0.00;0.00;;;13.30;99.90;;;;;;4979395;28;20061;-57
2022/06/28 01:15:14;;;;;;;0.00;0.00;;;13.30;99.90;;;;;;4980377;28;20050;-57
2022/06/28 01:17:40;;;;;;;0.00;0.00;;;13.30;99.90;;;;;;4979807;28;20104;-58
2022/06/28 01:20:06;;;;;;;0.00;0.00;;;13.20;99.90;;;;;;4979640;28;20116;-57
2022/06/28 01:22:38;;;;;;;0.10;0.10;;;13.20;99.90;;;;;;4976659;28;20078;-57
2022/06/28 01:25:04;;;;;;;0.00;0.00;;;13.20;99.90;;;;;;4979520;28;20030;-57
2022/06/28 01:27:30;;;;;;;0.00;0.00;;;13.20;99.90;;;;;;4979418;28;20077;-58
2022/06/28 01:29:55;;;;;;;0.00;0.00;;;13.20;99.90;;;;;;4978820;28;20096;-53
2022/06/28 01:32:21;;;;;;;0.00;0.00;;;13.10;99.90;;;;;;4979022;28;20054;-57
2022/06/28 01:34:47;;;;;;;0.00;0.00;;;13.10;99.90;;;;;;4979664;28;20038;-57
2022/06/28 01:37:12;;;;;;;0.00;0.00;;;13.10;99.90;;;;;;4978788;28;20081;-57
2022/06/28 01:39:38;;;;;;;0.00;0.00;;;13.10;99.90;;;;;;4978687;28;20038;-58
2022/06/28 01:42:04;;;;;;;0.00;0.00;;;13.10;99.90;;;;;;4979383;28;20052;-57
2022/06/28 01:44:30;;;;;;;0.05;0.05;;;13.10;99.90;;;;;;4981846;28;20038;-58
2022/06/28 01:46:57;;;;;;;0.00;0.00;;;13.00;99.90;;;;;;4988009;28;20121;-57
2022/06/28 01:49:22;;;;;;;0.00;0.00;;;13.10;99.90;;;;;;4978491;28;20097;-58
2022/06/28 01:51:50;;;;;;;0.00;0.00;;;13.00;99.90;;;;;;4978605;28;20061;-58
2022/06/28 01:54:16;;;;;;;0.00;0.00;;;13.00;99.90;;;;;;4979056;28;20109;-57
2022/06/28 01:56:43;;;;;;;0.00;0.00;;;13.00;99.90;;;;;;4979761;28;20074;-57
2022/06/28 01:59:09;;;;;;;0.00;0.00;;;12.90;99.90;;;;;;4978441;28;20627;-55
2022/06/28 02:01:36;;;;;;;0.00;0.00;;;12.90;99.90;;;;;;4978789;28;20042;-57
2022/06/28 02:04:17;;;;;;;0.00;0.00;;;12.90;99.90;;;;;;4979026;28;20050;-57
2022/06/28 02:06:43;;;;;;;0.20;0.20;;;12.80;99.90;;;;;;4978584;28;20070;-57
2022/06/28 02:09:09;;;;;;;0.00;0.00;;;12.80;99.90;;;;;;4978841;28;20152;-57
2022/06/28 02:11:35;;;;;;;0.13;0.13;;;12.70;99.90;;;;;;4978708;28;20046;-58
2022/06/28 02:14:01;;;;;;;0.00;0.00;;;12.70;99.90;;;;;;4977934;28;20536;-57
2022/06/28 02:16:27;;;;;;;0.00;0.00;;;12.70;99.90;;;;;;4978580;28;20054;-57
2022/06/28 02:18:52;;;;;;;0.00;0.00;;;12.60;99.90;;;;;;4978499;28;20050;-57
2022/06/28 02:21:18;;;;;;;0.00;0.00;;;12.70;99.90;;;;;;4977640;28;20038;-57
2022/06/28 02:23:43;;;;;;;0.00;0.00;;;12.70;99.90;;;;;;4978450;28;20185;-57
2022/06/28 02:26:11;;;;;;;0.00;0.00;;;12.70;99.90;;;;;;4978755;28;20046;-57
2022/06/28 02:28:37;;;;;;;0.10;0.10;;;12.60;99.90;;;;;;4978263;28;20636;-58
2022/06/28 02:31:11;;;;;;;0.00;0.00;;;12.60;99.90;;;;;;4977207;28;20143;-57
2022/06/28 02:33:37;;;;;;;0.00;0.00;;;12.60;99.90;;;;;;4978387;28;20085;-58
2022/06/28 02:41:31;;;;;;;0.00;0.00;;;12.60;99.90;;;;;;4978360;28;20054;-57
2022/06/28 02:43:57;;;;;;;0.00;0.00;;;12.60;99.90;;;;;;4979032;28;20041;-58
2022/06/28 02:46:23;;;;;;;0.10;0.00;;;12.60;99.90;;;;;;4987919;28;20097;-57
2022/06/28 02:48:48;;;;;;;0.00;0.00;;;12.50;99.90;;;;;;4978808;28;20112;-57
2022/06/28 02:51:14;;;;;;;0.10;0.10;;;12.50;99.90;;;;;;4978024;28;20054;-57
2022/06/28 02:53:40;;;;;;;0.00;0.00;;;12.50;99.90;;;;;;4978472;28;20047;-58
2022/06/28 02:56:06;;;;;;;0.00;0.00;;;12.40;99.90;;;;;;4978357;28;20054;-57
2022/06/28 02:58:32;;;;;;;0.00;0.00;;;12.40;99.90;;;;;;4978510;28;20097;-57
2022/06/28 03:00:58;;;;;;;0.00;0.00;;;12.30;99.90;;;;;;4978485;28;20054;-57
2022/06/28 03:03:24;;;;;;;0.00;0.00;;;12.30;99.90;;;;;;4977271;28;20050;-57
2022/06/28 03:05:50;;;;;;;0.00;0.00;;;12.20;99.90;;;;;;4977859;28;20088;-58
2022/06/28 03:08:17;;;;;;;0.00;0.00;;;12.30;99.90;;;;;;4978110;28;20491;-57
2022/06/28 03:10:43;;;;;;;0.00;0.00;;;12.30;99.90;;;;;;4978129;28;20058;-57
2022/06/28 03:13:09;;;;;;;0.00;0.00;;;12.30;99.90;;;;;;4976899;28;20050;-56
2022/06/28 03:15:35;;;;;;;0.00;0.00;;;12.30;99.90;;;;;;4978214;28;20666;-57
2022/06/28 03:18:01;;;;;;;0.00;0.00;;;12.30;99.90;;;;;;4978165;28;20242;-57
2022/06/28 03:20:28;;;;;;;0.00;0.00;;;12.30;99.90;;;;;;4977260;28;20046;-58
2022/06/28 03:22:54;;;;;;;0.00;0.00;;;12.30;99.90;;;;;;4980957;28;20097;-57
2022/06/28 03:25:20;;;;;;;0.10;0.00;;;12.30;99.90;;;;;;4981822;28;20046;-57
2022/06/28 03:27:46;;;;;;;0.00;0.00;;;12.30;99.90;;;;;;4981994;28;20673;-57
2022/06/28 03:30:13;;;;;;;0.00;0.00;;;12.30;99.90;;;;;;4981444;28;20043;-57
2022/06/28 03:32:39;;;;;;;0.00;0.00;;;12.30;99.90;;;;;;4981855;28;20633;-58
2022/06/28 03:35:05;;;;;;;0.00;0.00;;;12.30;99.90;;;;;;4980540;28;20056;-57
2022/06/28 03:37:31;;;;;;;0.00;0.00;;;12.30;99.90;;;;;;4981015;28;20076;-57
2022/06/28 03:39:56;;;;;;;0.03;0.03;;;12.30;99.90;;;;;;4980504;28;20043;-57
2022/06/28 03:42:23;;;;;;;0.00;0.00;;;12.30;99.90;;;;;;4981446;28;20042;-57
2022/06/28 03:44:49;;;;;;;0.00;0.00;;;12.30;99.90;;;;;;4985484;28;20050;-58
2022/06/28 03:47:14;;;;;;;0.00;0.00;;;12.30;99.90;;;;;;4989201;28;20094;-57
2022/06/28 03:49:40;;;;;;;0.00;0.00;;;12.40;99.90;;;;;;4980849;28;20405;-57
2022/06/28 03:52:07;;;;;;;0.00;0.00;;;12.30;99.90;;;;;;4979371;28;20054;-57
2022/06/28 03:54:33;;;;;;;0.08;0.08;;;12.30;99.90;;;;;;4981604;28;20069;-57
2022/06/28 03:56:59;;;;;;;0.10;0.10;;;12.30;99.90;;;;;;4981283;28;20047;-57
2022/06/28 03:59:25;;;;;;;0.00;0.00;;;12.20;99.90;;;;;;4980336;28;20034;-58
2022/06/28 04:01:50;;;;;;;0.00;0.00;;;12.30;99.90;;;;;;4981052;28;20066;-53
2022/06/28 04:04:16;;;;;;;0.00;0.00;;;12.30;99.90;;;;;;4981011;28;20058;-58
2022/06/28 04:06:42;;;;;;;0.00;0.00;;;12.40;99.90;;;;;;4980978;28;20109;-56
2022/06/28 04:09:07;;;;;;;0.10;0.00;;;12.40;99.90;;;;;;4980273;28;20043;-57
2022/06/28 04:11:33;;;;;;;0.00;0.00;;;12.40;99.90;;;;;;4979699;28;20508;-58
2022/06/28 04:13:58;;;;;;;0.03;0.03;;;12.60;99.90;;;;;;4981157;28;20049;-57
2022/06/28 04:16:24;;;;;;;0.00;0.00;;;12.90;99.90;;;;;;4980547;28;20046;-58
2022/06/28 04:18:51;;;;;;;0.00;0.00;;;13.20;99.90;;;;;;4981229;28;20726;-57
2022/06/28 04:21:18;;;;;;;0.00;0.00;;;13.20;99.90;;;;;;4980091;28;20460;-56
2022/06/28 04:23:45;;;;;;;0.13;0.13;;;13.10;99.90;;;;;;4981209;28;20050;-58
2022/06/28 04:26:11;;;;;;;0.10;0.10;;;12.90;99.90;;;;;;4980311;28;20090;-57
2022/06/28 04:28:37;;;;;;;0.00;0.00;;;12.90;99.90;;;;;;4980460;28;20076;-58
2022/06/28 04:31:03;;;;;;;0.10;0.10;;;12.80;99.90;;;;;;4980636;28;20049;-57
2022/06/28 04:33:29;;;;;;;0.00;0.00;;;12.80;99.90;;;;;;4979358;28;20046;-57
2022/06/28 04:35:55;;;;;;;0.20;0.20;;;12.80;99.90;;;;;;4979304;28;20049;-57
2022/06/28 04:38:20;;;;;;;0.00;0.00;;;12.90;99.90;;;;;;4980477;28;20069;-59
2022/06/28 04:40:46;;;;;;;0.20;0.20;;;12.90;99.90;;;;;;4980787;28;20046;-57
2022/06/28 04:43:12;;;;;;;0.00;0.00;;;12.90;99.90;;;;;;4979536;28;20050;-57
2022/06/28 04:45:38;;;;;;;0.10;0.10;;;12.90;99.90;;;;;;4989707;28;20069;-57
2022/06/28 04:48:04;;;;;;;0.20;0.10;;;13.00;99.90;;;;;;4981058;28;20100;-58
2022/06/28 04:50:30;;;;;;;0.00;0.00;;;13.00;99.90;;;;;;4979513;28;20050;-57
2022/06/28 04:52:56;;;;;;;0.00;0.00;;;13.00;99.90;;;;;;4979376;28;20045;-57
2022/06/28 04:55:22;;;;;;;0.00;0.00;;;13.10;99.90;;;;;;4980279;28;20046;-58
2022/06/28 04:57:47;;;;;;;0.00;0.00;;;13.40;99.90;;;;;;4980653;28;20122;-58
2022/06/28 05:00:14;;;;;;;0.00;0.00;;;13.70;99.90;;;;;;4980546;28;20309;-57
2022/06/28 05:02:40;;;;;;;0.05;0.03;;;14.00;99.90;;;;;;4979186;28;20097;-58
2022/06/28 05:05:07;;;;;;;0.00;0.00;;;14.30;99.90;;;;;;4979399;28;20124;-58
2022/06/28 05:07:34;;;;;;;0.00;0.00;;;14.50;99.90;;;;;;4980008;28;20042;-58
2022/06/28 05:10:00;;;;;;;0.10;0.10;;;14.80;99.90;;;;;;4980263;28;20112;-57
2022/06/28 05:12:26;;;;;;;0.05;0.05;;;15.10;99.90;;;;;;4978824;28;20699;-58
2022/06/28 05:14:52;;;;;;;0.00;0.00;;;15.50;99.90;;;;;;4979810;28;20042;-57
2022/06/28 05:17:18;;;;;;;0.00;0.00;;;15.70;99.90;;;;;;4979835;28;20050;-57
2022/06/28 05:19:44;;;;;;;0.00;0.00;;;15.80;99.90;;;;;;4980253;28;20042;-57
2022/06/28 05:22:10;;;;;;;0.10;0.10;;;15.90;99.90;;;;;;4978094;28;20125;-57
2022/06/28 05:24:36;;;;;;;0.00;0.00;;;15.80;99.90;;;;;;4979810;28;20125;-57
2022/06/28 05:27:02;;;;;;;0.00;0.00;;;15.80;99.90;;;;;;4979523;28;20054;-57
2022/06/28 05:29:28;;;;;;;0.03;0.00;;;16.10;99.90;;;;;;4978717;28;20038;-57
2022/06/28 05:31:54;;;;;;;0.10;0.10;;;16.20;99.90;;;;;;4994147;28;20046;-57
2022/06/28 05:34:19;;;;;;;0.22;0.10;;;16.00;99.90;;;;;;4979330;28;20042;-57
2022/06/28 05:36:45;;;;;;;0.25;0.20;;;16.00;99.90;;;;;;4979292;28;20065;-57
2022/06/28 05:39:11;;;;;;;0.00;0.00;;;16.00;99.90;;;;;;4978627;28;20042;-57
2022/06/28 05:41:37;;;;;;;0.00;0.00;;;16.00;99.90;;;;;;4979274;28;20060;-58
2022/06/28 05:44:04;;;;;;;0.52;0.45;;;16.10;99.90;;;;;;4980615;28;20715;-58
2022/06/28 05:46:30;;;;;;;0.00;0.00;;;16.00;99.90;;;;;;4988601;28;20048;-58
2022/06/28 05:48:56;;;;;;;0.13;0.10;;;16.00;99.90;;;;;;4978404;28;20041;-55
2022/06/28 05:51:21;;;;;;;0.10;0.10;;;16.20;99.90;;;;;;4978301;28;20616;-58
2022/06/28 05:53:47;;;;;;;0.00;0.00;;;16.50;99.90;;;;;;4978150;28;20441;-57
2022/06/28 05:56:13;;;;;;;0.10;0.10;;;16.60;99.90;;;;;;4979648;28;20050;-58
2022/06/28 05:58:38;;;;;;;0.00;0.00;;;16.40;99.90;;;;;;4978377;28;20080;-58
2022/06/28 06:01:04;;;;;;;0.28;0.20;;;16.50;99.90;;;;;;4979103;28;20050;-57
2022/06/28 06:03:30;;;;;;;0.10;0.10;;;16.30;99.90;;;;;;4978871;28;20113;-58
2022/06/28 06:05:56;;;;;;;0.00;0.00;;;16.30;99.90;;;;;;4978074;28;20042;-56
2022/06/28 06:08:22;;;;;;;0.10;0.10;;;16.30;99.90;;;;;;4978099;28;20034;-57
2022/06/28 06:10:48;;;;;;;0.20;0.20;;;16.50;99.90;;;;;;4978970;28;20555;-57
2022/06/28 06:13:13;;;;;;;0.00;0.00;;;16.70;99.90;;;;;;4978782;28;20039;-57
2022/06/28 06:15:39;;;;;;;0.00;0.00;;;17.10;99.90;;;;;;4995343;28;20073;-58
2022/06/28 06:18:05;;;;;;;0.00;0.00;;;16.90;99.90;;;;;;4996398;28;20170;-58
2022/06/28 06:20:31;;;;;;;0.52;0.52;;;17.20;99.90;;;;;;4997400;28;20041;-60
2022/06/28 06:22:56;;;;;;;1.88;0.15;;;17.20;99.90;;;;;;4998433;28;20132;-58
2022/06/28 06:25:22;;;;;;;0.10;0.10;;;17.40;99.90;;;;;;4997589;28;20521;-58
2022/06/28 06:27:47;;;;;;;0.10;0.10;;;17.20;99.90;;;;;;4998418;28;20045;-58
2022/06/28 06:30:14;;;;;;;0.30;0.10;;;17.30;99.90;;;;;;4998243;28;20126;-58
2022/06/28 06:32:39;;;;;;;0.00;0.00;;;17.70;99.90;;;;;;4998036;28;20044;-57
2022/06/28 06:35:07;;;;;;;0.35;0.20;;;17.20;99.90;;;;;;4996439;28;20288;-58
2022/06/28 06:37:32;;;;;;;0.22;0.22;;;17.50;99.90;;;;;;4998315;28;20046;-58
2022/06/28 06:39:58;;;;;;;0.00;0.00;;;18.00;99.90;;;;;;4998125;28;20072;-57
2022/06/28 06:42:24;;;;;;;0.00;0.00;;;18.00;99.90;;;;;;4998006;28;20045;-57
2022/06/28 06:44:49;;;;;;;0.10;0.10;;;18.00;99.90;;;;;;4991304;28;20725;-58
2022/06/28 06:47:15;;;;;;;0.00;0.00;;;17.80;99.90;;;;;;4985856;28;20061;-57
2022/06/28 06:49:41;;;;;;;0.15;0.05;;;18.10;99.90;;;;;;4978259;28;20042;-58
2022/06/28 06:52:07;;;;;;;0.10;0.10;;;18.20;99.90;;;;;;4978201;28;20303;-58
2022/06/28 06:54:32;;;;;;;0.10;0.10;;;18.00;99.90;;;;;;4977717;28;20692;-58
2022/06/28 06:56:58;;;;;;;0.00;0.00;;;18.10;99.90;;;;;;4980945;28;20137;-57
2022/06/28 06:59:24;;;;;;;0.10;0.10;;;18.30;99.90;;;;;;4982402;28;20034;-57
2022/06/28 07:01:50;;;;;;;0.00;0.00;;;18.10;99.90;;;;;;4981922;28;20153;-58
2022/06/28 07:04:16;;;;;;;0.10;0.10;;;18.00;99.90;;;;;;4981649;28;20192;-58
2022/06/28 07:06:42;;;;;;;0.00;0.00;;;18.10;99.90;;;;;;4982279;28;20133;-56
2022/06/28 07:09:07;;;;;;;0.10;0.10;;;18.20;99.90;;;;;;4982428;28;20077;-57
2022/06/28 07:11:34;;;;;;;0.13;0.13;;;18.10;99.90;;;;;;4981256;28;20046;-58
2022/06/28 07:14:00;;;;;;;0.00;0.00;;;18.10;99.90;;;;;;4981984;28;20049;-57
2022/06/28 07:16:26;;;;;;;0.35;0.25;;;18.10;99.90;;;;;;4980311;28;20056;-57
2022/06/28 07:18:52;;;;;;;0.38;0.17;;;17.60;99.90;;;;;;4981942;28;20620;-57
2022/06/28 07:21:18;;;;;;;0.10;0.10;;;17.70;99.90;;;;;;4980360;28;20042;-57
2022/06/28 07:23:44;;;;;;;0.00;0.00;;;17.70;99.90;;;;;;4982417;28;20054;-57
2022/06/28 07:26:10;;;;;;;0.43;0.38;;;17.50;99.90;;;;;;4981716;28;20639;-57
2022/06/28 07:28:36;;;;;;;0.20;0.10;;;17.70;99.90;;;;;;4981129;28;20560;-57
2022/06/28 07:31:01;;;;;;;0.10;0.05;;;17.90;99.90;;;;;;4980677;28;20601;-58
2022/06/28 07:33:27;;;;;;;0.00;0.00;;;18.20;99.90;;;;;;4981547;28;20054;-57
2022/06/28 07:35:53;;;;;;;0.00;0.00;;;18.60;99.90;;;;;;4980947;28;20072;-57
2022/06/28 07:38:18;;;;;;;0.10;0.10;;;18.50;99.90;;;;;;4981419;28;20200;-57
2022/06/28 07:40:44;;;;;;;0.00;0.00;;;18.70;99.90;;;;;;4981193;28;20050;-57
2022/06/28 07:43:10;;;;;;;0.10;0.10;;;19.00;99.90;;;;;;4981571;28;20802;-57
2022/06/28 07:45:36;;;;;;;0.20;0.20;;;19.40;99.90;;;;;;4991132;28;20049;-57
2022/06/28 07:48:06;;;;;;;0.20;0.20;;;19.00;99.90;;;;;;4981961;28;20104;-58
2022/06/28 07:53:17;;;;;;;0.10;0.10;;;18.90;99.90;;;;;;4981191;28;20053;-57
2022/06/28 07:55:43;;;;;;;0.00;0.00;;;18.70;99.90;;;;;;4980911;28;20043;-59
2022/06/28 07:58:09;;;;;;;0.00;0.00;;;18.80;99.90;;;;;;4979869;28;20043;-58
2022/06/28 08:00:34;;;;;;;0.15;0.05;;;18.70;99.90;;;;;;4979876;28;20050;-57
2022/06/28 08:03:00;;;;;;;0.00;0.00;;;19.00;99.90;;;;;;4980929;28;20054;-57
2022/06/28 08:05:26;;;;;;;0.10;0.10;;;19.10;99.90;;;;;;4979789;28;20054;-57
2022/06/28 08:07:52;;;;;;;0.05;0.00;;;19.00;99.90;;;;;;4979415;28;20101;-57
2022/06/28 08:10:18;;;;;;;0.00;0.00;;;18.90;99.90;;;;;;4980966;28;20042;-58
2022/06/28 08:12:44;;;;;;;6.22;0.20;;;18.90;99.90;;;;;;4981153;28;20050;-58
2022/06/28 08:15:10;;;;;;;0.00;0.00;;;18.90;99.90;;;;;;4980247;28;20038;-57
2022/06/28 08:17:36;;;;;;;0.00;0.00;;;18.70;99.90;;;;;;4980875;28;20057;-58
2022/06/28 08:20:02;;;;;;;0.00;0.00;;;18.80;99.90;;;;;;4978856;28;20054;-58
2022/06/28 08:22:28;;;;;;;0.20;0.10;;;18.90;99.90;;;;;;4978736;28;20112;-59
2022/06/28 08:24:54;;;;;;;0.00;0.00;;;18.90;99.90;;;;;;4980817;28;20046;-58
2022/06/28 08:27:19;;;;;;;0.00;0.00;;;19.00;99.90;;;;;;4980424;28;20048;-57
2022/06/28 08:29:46;;;;;;;0.00;0.00;;;19.50;99.90;;;;;;4980924;28;20142;-58
2022/06/28 08:32:12;;;;;;;0.00;0.00;;;19.40;99.90;;;;;;4980346;28;20108;-57
2022/06/28 08:34:39;;;;;;;0.00;0.00;;;19.30;99.90;;;;;;4980341;28;20659;-57
2022/06/28 08:37:06;;;;;;;0.00;0.00;;;19.20;99.90;;;;;;4980661;28;20049;-58
2022/06/28 08:39:32;;;;;;;0.00;0.00;;;19.50;99.90;;;;;;4979217;28;20047;-58
2022/06/28 08:42:04;;;;;;;0.00;0.00;;;19.80;99.90;;;;;;4979645;28;20038;-58
2022/06/28 08:44:33;;;;;;;0.30;0.30;;;19.70;99.90;;;;;;4983158;28;20048;-61
2022/06/28 08:47:00;;;;;;;0.00;0.00;;;19.70;99.90;;;;;;4989874;28;20136;-59
2022/06/28 08:49:49;;;;;;;0.00;0.00;;;19.70;99.90;;;;;;4998333;28;20726;-59
2022/06/28 08:52:16;;;;;;;0.00;0.00;;;19.60;99.90;;;;;;4999890;28;20048;-59
2022/06/28 08:54:42;;;;;;;0.00;0.00;;;20.30;99.90;;;;;;4999182;28;20092;-58
2022/06/28 08:57:08;;;;;;;0.00;0.00;;;20.40;99.90;;;;;;4999714;28;20050;-60
2022/06/28 08:59:36;;;;;;;0.00;0.00;;;20.60;99.90;;;;;;4999617;28;20149;-59
2022/06/28 09:02:06;;;;;;;0.00;0.00;;;20.50;99.90;;;;;;4993212;28;20060;-59
2022/06/28 09:04:32;;;;;;;0.08;0.08;;;20.10;99.90;;;;;;4987292;28;20046;-59
2022/06/28 09:06:58;;;;;;;0.00;0.00;;;19.90;99.90;;;;;;4988606;28;20709;-58
2022/06/28 09:09:24;;;;;;;2.63;1.17;;;19.90;99.90;;;;;;4989899;28;20038;-59
2022/06/28 09:11:52;;;;;;;0.10;0.10;;;20.00;99.90;;;;;;4980370;28;20432;-58
2022/06/28 09:14:35;;;;;;;0.00;0.00;;;19.90;99.90;;;;;;4979760;28;20408;-58
2022/06/28 09:17:21;;;;;;;0.00;0.00;;;19.80;99.90;;;;;;4979763;28;20049;-58
2022/06/28 09:19:48;;;;;;;0.00;0.00;;;19.80;99.90;;;;;;4978667;28;20043;-58
2022/06/28 09:22:37;;;;;;;0.65;0.17;;;20.00;99.90;;;;;;4980016;28;20050;-58
2022/06/28 09:25:09;;;;;;;0.00;0.00;;;20.40;99.90;;;;;;4979606;28;20452;-58
2022/06/28 09:27:39;;;;;;;0.00;0.00;;;20.40;99.90;;;;;;4979839;28;20054;-59
2022/06/28 09:30:07;;;;;;;1.77;1.55;;;20.20;99.90;;;;;;4979072;28;20556;-59
2022/06/28 09:32:36;;;;;;;0.00;0.00;;;20.10;99.90;;;;;;4994420;28;20632;-59
2022/06/28 09:35:11;;;;;;;0.00;0.00;;;20.40;99.90;;;;;;4979147;28;20042;-57
2022/06/28 09:37:40;;;;;;;0.10;0.00;;;20.50;99.90;;;;;;4979476;28;20707;-58
2022/06/28 09:40:10;;;;;;;0.00;0.00;;;20.80;99.90;;;;;;5001663;28;20068;-59
2022/06/28 09:42:36;;;;;;;0.00;0.00;;;20.80;99.90;;;;;;4998810;28;20405;-58
2022/06/28 09:45:02;;;;;;;0.00;0.00;;;21.20;99.90;;;;;;4992350;28;20049;-58
2022/06/28 09:47:28;;;;;;;0.47;0.40;;;21.10;99.90;;;;;;4983720;28;20501;-58
2022/06/28 09:49:54;;;;;;;0.05;0.00;;;20.90;99.90;;;;;;4978722;28;20141;-59
2022/06/28 09:52:26;;;;;;;0.00;0.00;;;21.10;99.90;;;;;;4978895;28;20501;-58
2022/06/28 09:54:56;;;;;;;0.08;0.05;;;21.10;99.90;;;;;;4978791;28;20042;-58
2022/06/28 09:57:22;;;;;;;0.00;0.00;;;21.30;99.90;;;;;;4978845;28;20057;-58
2022/06/28 09:59:49;;;;;;;0.00;0.00;;;21.60;99.90;;;;;;4979284;28;20134;-58
2022/06/28 10:02:17;;;;;;;0.00;0.00;;;21.50;99.90;;;;;;4979017;28;20058;-57
2022/06/28 10:04:44;;;;;;;0.00;0.00;;;21.30;99.90;;;;;;4978021;28;20050;-58
2022/06/28 10:07:11;;;;;;;0.00;0.00;;;21.50;99.90;;;;;;4978804;28;20038;-58
2022/06/28 10:09:38;;;;;;;0.00;0.00;;;21.90;99.90;;;;;;4978639;28;20046;-58
2022/06/28 10:15:01;;;;;;;0.00;0.00;;;21.20;99.90;;;;;;4979040;28;20054;-59
2022/06/28 10:17:40;;;;;;;0.00;0.00;;;21.50;99.90;;;;;;4977712;28;20121;-58
2022/06/28 10:20:09;;;;;;;0.00;0.00;;;21.60;99.90;;;;;;4977911;28;20058;-58
2022/06/28 10:22:34;;;;;;;0.00;0.00;;;21.90;99.90;;;;;;4978737;28;20489;-58
2022/06/28 10:25:01;;;;;;;0.00;0.00;;;21.70;99.90;;;;;;4979058;28;20112;-59
2022/06/28 10:27:29;;;;;;;0.10;0.10;;;21.90;99.90;;;;;;4995672;28;20561;-59
2022/06/28 10:29:57;;;;;;;0.10;0.00;;;22.50;99.90;;;;;;4997716;28;20038;-58
2022/06/28 10:32:53;;;;;;;0.10;0.10;;;22.10;99.90;;;;;;4994549;28;20046;-60
2022/06/28 10:35:42;;;;;;;0.10;0.10;;;21.70;99.90;;;;;;4985550;28;20056;-58
2022/06/28 10:38:07;;;;;;;0.00;0.00;;;21.50;99.90;;;;;;4990657;28;20053;-58
2022/06/28 10:40:49;;;;;;;0.00;0.00;;;21.70;99.90;;;;;;4997540;28;20666;-59
2022/06/28 10:43:43;;;;;;;0.00;0.00;;;22.30;99.90;;;;;;4988597;28;20057;-56
2022/06/28 10:46:11;;;;;;;0.00;0.00;;;22.20;99.90;;;;;;4996669;28;20050;-58
2022/06/28 10:48:48;;;;;;;0.00;0.00;;;22.10;99.90;;;;;;4986429;28;20475;-59
2022/06/28 10:51:15;;;;;;;0.15;0.00;;;22.30;99.90;;;;;;4991666;28;20049;-59
2022/06/28 10:54:01;;;;;;;0.00;0.00;;;22.50;99.90;;;;;;4998413;28;20124;-52
2022/06/28 10:56:29;;;;;;;0.43;0.22;;;22.20;99.90;;;;;;4998027;28;20057;-59
2022/06/28 10:58:58;;;;;;;0.00;0.00;;;21.90;99.90;;;;;;4996786;28;20041;-59
2022/06/28 11:01:47;;;;;;;0.00;0.00;;;22.10;99.90;;;;;;4997779;28;20053;-59
2022/06/28 11:04:18;;;;;;;0.00;0.00;;;22.30;99.90;;;;;;4991804;28;20053;-58
2022/06/28 11:06:49;;;;;;;0.00;0.00;;;22.20;99.90;;;;;;4998600;28;20148;-59
2022/06/28 11:09:47;;;;;;;0.00;0.00;;;22.40;99.90;;;;;;4997458;28;20578;-59
2022/06/28 11:12:19;;;;;;;0.00;0.00;;;22.20;99.90;;;;;;4998278;28;20038;-59
2022/06/28 11:14:54;;;;;;;0.00;0.00;;;22.10;99.90;;;;;;4997399;28;20129;-58
2022/06/28 11:17:27;;;;;;;0.00;0.00;;;22.10;99.90;;;;;;4996083;28;20096;-58
2022/06/28 11:20:01;;;;;;;0.00;0.00;;;22.30;99.90;;;;;;4996335;28;20137;-59
2022/06/28 11:22:36;;;;;;;0.10;0.10;;;22.40;99.90;;;;;;4997611;28;20042;-58
2022/06/28 11:25:04;;;;;;;0.00;0.00;;;22.10;99.90;;;;;;4997720;28;20037;-59
2022/06/28 11:27:31;;;;;;;0.00;0.00;;;22.30;99.90;;;;;;4996607;28;20556;-58
2022/06/28 11:29:59;;;;;;;0.20;0.20;;;22.60;99.90;;;;;;4997304;28;20113;-58
2022/06/28 11:32:26;;;;;;;0.00;0.00;;;22.70;99.90;;;;;;5012822;28;20515;-58
2022/06/28 11:35:09;;;;;;;0.00;0.00;;;22.80;99.90;;;;;;4994980;28;20412;-58
2022/06/28 11:38:03;;;;;;;0.35;0.15;;;22.40;99.90;;;;;;4997637;28;20081;-58
2022/06/28 11:40:47;;;;;;;0.00;0.00;;;22.10;99.90;;;;;;4997588;28;20046;-58
2022/06/28 11:43:15;;;;;;;0.00;0.00;;;22.30;99.90;;;;;;5000781;28;20050;-59
2022/06/28 11:45:48;;;;;;;0.00;0.00;;;22.50;99.90;;;;;;4994702;28;20052;-58
2022/06/28 11:48:16;;;;;;;0.00;0.00;;;22.30;99.90;;;;;;4981977;28;20101;-58
2022/06/28 11:50:43;;;;;;;0.00;0.00;;;22.60;99.90;;;;;;4981349;28;20447;-56
2022/06/28 11:53:10;;;;;;;0.00;0.00;;;22.80;99.90;;;;;;4980544;28;20073;-58
2022/06/28 11:55:45;;;;;;;0.00;0.00;;;22.80;99.90;;;;;;4981653;28;20055;-59
2022/06/28 11:58:15;;;;;;;0.25;0.25;;;22.80;99.90;;;;;;4980286;28;20058;-58
2022/06/28 12:01:00;;;;;;;0.10;0.10;;;23.10;99.90;;;;;;4981144;28;20046;-59
2022/06/28 12:03:26;;;;;;;2.63;0.90;;;23.00;99.90;;;;;;4980065;28;20054;-59
2022/06/28 12:06:00;;;;;;;0.00;0.00;;;22.80;99.90;;;;;;4980488;28;20049;-58
2022/06/28 12:08:45;;;;;;;0.00;0.00;;;23.00;99.90;;;;;;4981224;28;20046;-58
2022/06/28 12:11:29;;;;;;;0.00;0.00;;;23.20;99.90;;;;;;4981602;28;20050;-58
2022/06/28 12:13:58;;;;;;;0.00;0.00;;;23.30;99.90;;;;;;4983922;28;20574;-58
2022/06/28 12:16:28;;;;;;;0.00;0.00;;;22.60;99.90;;;;;;4981194;28;20145;-59
2022/06/28 12:18:55;;;;;;;0.08;0.00;;;23.10;99.90;;;;;;4979752;28;20054;-58
2022/06/28 12:21:21;;;;;;;0.00;0.00;;;23.30;99.90;;;;;;4980942;28;20046;-59
2022/06/28 12:23:52;;;;;;;0.00;0.00;;;22.70;99.90;;;;;;4980574;28;20046;-58
2022/06/28 12:26:18;;;;;;;0.00;0.00;;;23.10;99.90;;;;;;4998805;28;20444;-58
2022/06/28 12:28:44;;;;;;;0.00;0.00;;;22.90;99.90;;;;;;4999499;28;20046;-58
2022/06/28 12:31:10;;;;;;;0.00;0.00;;;23.10;99.90;;;;;;4999698;28;20085;-58
2022/06/28 12:33:36;;;;;;;0.10;0.10;;;22.90;99.90;;;;;;4999638;28;20085;-59
2022/06/28 12:36:02;;;;;;;0.75;0.45;;;22.70;99.90;;;;;;4998843;28;20335;-59
2022/06/28 12:38:27;;;;;;;0.00;0.00;;;22.40;99.90;;;;;;4997587;28;20038;-60
2022/06/28 12:40:53;;;;;;;0.00;0.00;;;22.30;99.90;;;;;;4999561;28;20128;-58
2022/06/28 12:43:19;;;;;;;0.00;0.00;;;22.40;99.90;;;;;;4994115;28;20080;-58
2022/06/28 12:45:44;;;;;;;0.00;0.00;;;22.90;99.90;;;;;;4991857;28;20125;-58
2022/06/28 12:48:10;;;;;;;0.00;0.00;;;23.20;99.90;;;;;;4979776;28;20061;-56
2022/06/28 12:50:36;;;;;;;0.00;0.00;;;23.50;99.90;;;;;;4978341;28;20088;-59
2022/06/28 12:53:02;;;;;;;0.00;0.00;;;23.70;99.90;;;;;;4979644;28;20497;-61
2022/06/28 12:55:28;;;;;;;0.00;0.00;;;23.20;99.90;;;;;;4979382;28;20043;-60
2022/06/28 12:57:53;;;;;;;0.10;0.00;;;23.00;99.90;;;;;;4980180;28;20470;-61
2022/06/28 13:00:20;;;;;;;0.00;0.00;;;23.30;99.90;;;;;;4979801;28;20199;-61
2022/06/28 13:02:45;;;;;;;0.10;0.05;;;22.80;99.90;;;;;;4982813;28;20068;-59